Pagina principală
METAR-TAF:

METAR-TAF

Aeroporturi :

Great Bend Municipal Airport

Great Bend, Kansas, Statele Unite ale Americii

Latitudine: 38-21N, longitudine: 098-52W, elevație: 575 m

Observații meteo curente

Raportul a fost făcut în urmă cu 31 de minute, la 14:56 UTC
Vânt 13 kt de la Est/Nord-est
Temperatură 26°C
Umiditate 48%
Presiune 1021 hPa
Vizibilitate: 16.1 km
Cer senin

METAR: KGBD 171456Z AUTO 06013KT 10SM CLR 26/14 A3014 RMK AO2 SLP186 T02610139 53011

Ora: 10:27 (15:27 UTC)

Prognoză

Raportul a fost făcut în urmă cu 4 ore și 7 de minute, la 11:20 UTC
Prognoză valabilă de la 17 ora 12 UTC la 18 ora 12 UTC
Vânt 10 kt de la Nord/Nord-est
Vizibilitate: 10 km
Total acoperit la o înălțime de 1200 picior
De la 17 ora 1400 UTC
Vânt 9 kt de la Nord-est
Vizibilitate: 10 km
Nori împrăștiați la o înălțime de 14000 picior

TAF: KGBD 171120Z 1712/1812 03010KT P6SM OVC012 FM171400 05009KT P6SM SCT140

Observații și prognoze meteo pentru peste 4.000 de aeroporturi (rapoarte METAR și TAF).

Stațiile disponibile sunt reprezentate pe hartă prin puncte galbene și roșii.

Țineți indicatorul mouse-ului pe punctul dorit pentru a vedea denumirea stației.

Apoi, faceți clic pentru a vedea observațiile și prognozele meteorologice.

Pentru a schimba harta: Pentru mărire, faceți clic pe butoanele verzi cu cruce neagră; pentru micșorare, pe butonul verde cu o liniuță; pentru hărți învecinate, pe săgețile verzi.


METAR-TAF: